EIKN

Ireland West Knock Airport

Charleston, Ireland
METAR EIKN 191700Z 28006KT 9999 -DZ SCT009 OVC042 18/16 Q1018 TEMPO 5000
Observed Flight Rules
Aug-19 @ 17:00 UTC (13 minutes ago) Visual Flight Rules
Wind Visibility Clouds Conditions
280° at 6 knots 10,000+ meters
  • Scattered at 900' AGL
  • Overcast at 4,200' AGL
  • Light Drizzle
Temperatures Readings
Current 18°C / 64°F
Dewpoint 16°C / 61°F
Humidity 88%
Altimeter 30.06" Hg
Pressure 1018 hPa
Elevation 64
METAR EIKN 191700Z 28006KT 9999 -DZ SCT009 OVC042 18/16 Q1018 TEMPO 5000
Observed Flight Rules
Aug-19 @ 17:00 UTC
(13 minutes ago)
VFR
Wind Visibility
280° at 6 knots 10,000+ meters
Clouds
  • Scattered at 900' AGL
  • Overcast at 4,200' AGL
Conditions
  • Light Drizzle
Temperature Dewpoint
18°C / 64°F 16°C / 61°F
Humidity Altimeter Pressure
88% 30.06" Hg 1018 hPa